createdAt,value
2019-03-02T00:02:25.472Z,7.30
2019-03-02T00:05:09.683Z,7.40
2019-03-02T00:07:49.525Z,7.40
2019-03-02T00:10:30.974Z,7.40
2019-03-02T00:13:23.348Z,7.40
2019-03-02T00:16:52.460Z,7.30
2019-03-02T00:19:26.224Z,7.30
2019-03-02T00:22:24.149Z,7.20
2019-03-02T00:24:34.999Z,7.20
2019-03-02T00:27:34.567Z,7.20
2019-03-02T00:30:22.966Z,7.20
2019-03-02T00:33:05.556Z,7.20
2019-03-02T00:35:46.199Z,7.20
2019-03-02T00:38:27.920Z,7.20
2019-03-02T00:41:16.486Z,7.20
2019-03-02T00:44:04.820Z,7.20
2019-03-02T00:46:45.198Z,7.30
2019-03-02T00:49:34.245Z,7.30
2019-03-02T00:52:11.819Z,7.30
2019-03-02T00:54:58.135Z,7.20
2019-03-02T00:57:42.699Z,7.30
2019-03-02T01:00:20.065Z,7.30
2019-03-02T01:03:07.852Z,7.30
2019-03-02T01:05:46.743Z,7.40
2019-03-02T01:08:31.795Z,7.50
2019-03-02T01:11:17.304Z,7.60
2019-03-02T01:13:53.731Z,7.50
2019-03-02T01:16:34.815Z,7.60
2019-03-02T01:19:24.120Z,7.70
2019-03-02T01:21:54.723Z,7.70
2019-03-02T01:24:43.939Z,7.80
2019-03-02T01:27:20.649Z,7.80
2019-03-02T01:30:04.653Z,7.80
2019-03-02T01:32:42.485Z,7.90
2019-03-02T01:35:33.030Z,7.90
2019-03-02T01:38:11.650Z,7.90
2019-03-02T01:40:52.934Z,7.90
2019-03-02T01:43:30.302Z,7.90
2019-03-02T01:46:16.289Z,7.90
2019-03-02T01:49:05.707Z,7.90
2019-03-02T01:51:43.362Z,7.90
2019-03-02T01:54:23.347Z,7.90
2019-03-02T01:57:13.835Z,7.90
2019-03-02T01:59:53.366Z,7.90
2019-03-02T02:02:42.224Z,8.00
2019-03-02T02:05:13.630Z,8.00
2019-03-02T02:08:05.569Z,8.00
2019-03-02T02:10:43.289Z,8.00
2019-03-02T02:13:27.011Z,8.00
2019-03-02T02:16:14.089Z,8.00
2019-03-02T02:19:02.451Z,8.00
2019-03-02T02:21:36.660Z,8.00
2019-03-02T02:24:21.724Z,8.00
2019-03-02T02:27:03.353Z,8.00
2019-03-02T02:29:52.284Z,8.00
2019-03-02T02:32:28.888Z,8.00
2019-03-02T02:35:11.638Z,8.10
2019-03-02T02:37:56.321Z,8.10
2019-03-02T02:40:36.513Z,8.10
2019-03-02T02:43:20.173Z,8.10
2019-03-02T02:46:08.032Z,8.10
2019-03-02T02:48:51.208Z,8.10
2019-03-02T02:51:26.045Z,8.10
2019-03-02T02:54:06.723Z,8.10
2019-03-02T02:56:54.026Z,8.10
2019-03-02T02:59:28.969Z,8.10
2019-03-02T03:02:19.596Z,8.10
2019-03-02T03:05:04.876Z,8.10
2019-03-02T03:07:55.939Z,8.10
2019-03-02T03:10:34.973Z,8.10
2019-03-02T03:13:10.346Z,8.20
2019-03-02T03:15:50.626Z,8.10
2019-03-02T03:18:35.158Z,8.20
2019-03-02T03:21:28.053Z,8.20
2019-03-02T03:24:06.760Z,8.10
2019-03-02T03:26:54.609Z,8.10
2019-03-02T03:29:30.707Z,8.10
2019-03-02T03:32:12.380Z,8.10
2019-03-02T03:34:54.659Z,8.10
2019-03-02T03:37:32.366Z,8.10
2019-03-02T03:40:14.753Z,8.10
2019-03-02T03:43:06.032Z,8.20
2019-03-02T03:45:43.405Z,8.20
2019-03-02T03:48:28.430Z,8.20
2019-03-02T03:51:05.346Z,8.20
2019-03-02T03:53:54.360Z,8.20
2019-03-02T03:56:31.152Z,8.20
2019-03-02T03:59:14.318Z,8.20
2019-03-02T04:01:58.725Z,8.10
2019-03-02T04:04:43.370Z,8.20
2019-03-02T04:07:32.149Z,8.20
2019-03-02T04:10:09.708Z,8.10
2019-03-02T04:12:59.619Z,8.20
2019-03-02T04:15:43.200Z,8.10
2019-03-02T04:19:04.609Z,8.20
2019-03-02T04:22:02.014Z,8.10
2019-03-02T04:24:20.404Z,8.10
2019-03-02T04:27:00.867Z,8.10
2019-03-02T04:29:55.319Z,8.10
2019-03-02T04:32:34.076Z,8.10
2019-03-02T04:35:14.023Z,8.10
2019-03-02T04:37:50.916Z,8.10
2019-03-02T04:40:31.482Z,8.10
2019-03-02T04:44:14.029Z,8.10
2019-03-02T04:45:56.409Z,8.10
2019-03-02T04:48:50.686Z,8.10
2019-03-02T04:51:29.257Z,8.10
2019-03-02T04:54:19.827Z,8.20
2019-03-02T04:56:51.048Z,8.20
2019-03-02T05:02:38.147Z,8.20
2019-03-02T05:08:05.000Z,8.20
2019-03-02T05:10:33.296Z,8.20
2019-03-02T05:13:15.813Z,8.20
2019-03-02T05:15:55.430Z,8.20
2019-03-02T05:18:42.700Z,8.20
2019-03-02T05:21:24.660Z,8.10
2019-03-02T05:24:19.003Z,8.20
2019-03-02T05:26:53.461Z,8.20
2019-03-02T05:29:43.072Z,8.20
2019-03-02T05:32:22.184Z,8.10
2019-03-02T05:38:44.718Z,8.20
2019-03-02T05:40:48.199Z,8.20
2019-03-02T05:43:20.042Z,8.20
2019-03-02T05:46:41.134Z,8.10
2019-03-02T05:49:26.402Z,8.10
2019-03-02T05:52:08.424Z,8.20
2019-03-02T05:54:51.564Z,8.20
2019-03-02T05:57:36.984Z,8.10
2019-03-02T06:00:19.858Z,8.10
2019-03-02T06:02:59.977Z,8.10
2019-03-02T06:05:40.367Z,8.10
2019-03-02T06:08:32.205Z,8.10
2019-03-02T06:11:06.690Z,8.10
2019-03-02T06:13:44.229Z,8.20
2019-03-02T06:16:24.710Z,8.20
2019-03-02T06:19:12.655Z,8.20
2019-03-02T06:21:55.818Z,8.20
2019-03-02T06:24:47.879Z,8.10
2019-03-02T06:27:20.562Z,8.20
2019-03-02T06:30:10.398Z,8.20
2019-03-02T06:32:48.852Z,8.20
2019-03-02T06:35:36.160Z,8.20
2019-03-02T06:38:08.112Z,8.20
2019-03-02T06:40:54.825Z,8.30
2019-03-02T06:43:30.505Z,8.20
2019-03-02T06:46:19.814Z,8.20
2019-03-02T06:49:04.949Z,8.20
2019-03-02T06:51:43.734Z,8.30
2019-03-02T06:54:49.158Z,8.30
2019-03-02T06:57:37.500Z,8.30
2019-03-02T07:00:26.931Z,8.30
2019-03-02T07:03:29.129Z,8.30
2019-03-02T07:05:50.909Z,8.40
2019-03-02T07:08:33.611Z,8.40
2019-03-02T07:11:05.078Z,8.50
2019-03-02T07:13:41.395Z,8.50
2019-03-02T07:16:20.009Z,8.50
2019-03-02T07:19:18.561Z,8.50
2019-03-02T07:22:13.557Z,8.60
2019-03-02T07:25:01.445Z,8.60
2019-03-02T07:27:29.593Z,8.70
2019-03-02T07:30:23.949Z,8.70
2019-03-02T07:35:06.423Z,8.80
2019-03-02T07:37:52.420Z,8.90
2019-03-02T07:41:41.687Z,8.90
2019-03-02T07:43:00.136Z,8.90
2019-03-02T07:45:31.344Z,8.90
2019-03-02T07:48:19.530Z,9.00
2019-03-02T07:53:29.116Z,9.00
2019-03-02T07:55:58.675Z,9.10
2019-03-02T08:01:48.872Z,9.20
2019-03-02T08:06:50.001Z,9.30
2019-03-02T08:09:22.070Z,9.40
2019-03-02T08:12:20.783Z,9.30
2019-03-02T08:13:50.886Z,9.30
2019-03-02T08:15:10.905Z,9.40
2019-03-02T08:17:45.571Z,9.40
2019-03-02T08:20:20.742Z,9.50
2019-03-02T08:22:50.486Z,9.50
2019-03-02T08:25:46.967Z,9.60
2019-03-02T08:28:51.816Z,9.60
2019-03-02T08:31:49.276Z,9.60
2019-03-02T08:34:46.354Z,9.70
2019-03-02T08:37:42.995Z,9.70
2019-03-02T08:40:40.076Z,9.80
2019-03-02T08:46:16.509Z,10.00
2019-03-02T08:48:49.697Z,9.90
2019-03-02T08:51:19.793Z,10.00
2019-03-02T08:54:09.723Z,10.10
2019-03-02T09:00:48.779Z,10.10
2019-03-02T09:03:18.826Z,10.20
2019-03-02T09:06:11.586Z,10.20
2019-03-02T09:09:07.347Z,10.20
2019-03-02T09:11:44.454Z,10.30
2019-03-02T09:14:19.072Z,10.30
2019-03-02T09:16:49.285Z,10.30
2019-03-02T09:19:42.486Z,10.40
2019-03-02T09:22:32.019Z,10.40
2019-03-02T09:25:36.561Z,10.40
2019-03-02T09:28:22.827Z,10.40
2019-03-02T09:31:42.440Z,10.40
2019-03-02T09:34:36.969Z,10.50
2019-03-02T09:37:44.078Z,10.40
2019-03-02T09:43:32.071Z,10.50
2019-03-02T09:46:28.300Z,10.50
2019-03-02T09:49:44.546Z,10.50
2019-03-02T09:54:05.783Z,10.60
2019-03-02T09:57:08.165Z,10.60
2019-03-02T10:00:10.895Z,10.70
2019-03-02T10:02:27.079Z,10.80
2019-03-02T10:05:04.569Z,10.90
2019-03-02T10:07:37.861Z,11.20
2019-03-02T10:10:33.951Z,11.30
2019-03-02T10:13:14.473Z,11.30
2019-03-02T10:16:04.308Z,11.30
2019-03-02T10:18:35.268Z,11.40
2019-03-02T10:21:05.512Z,11.80
2019-03-02T10:23:56.171Z,12.10
2019-03-02T10:26:59.755Z,11.90
2019-03-02T10:29:56.594Z,11.90
2019-03-02T10:32:56.882Z,11.80
2019-03-02T10:35:56.360Z,11.90
2019-03-02T10:38:55.749Z,11.90
2019-03-02T10:42:00.452Z,11.80
2019-03-02T10:44:57.036Z,11.80
2019-03-02T10:47:59.846Z,12.00
2019-03-02T10:50:55.974Z,12.30
2019-03-02T10:54:01.775Z,12.50
2019-03-02T10:56:06.001Z,12.50
2019-03-02T10:58:38.696Z,12.50
2019-03-02T11:01:30.399Z,12.30
2019-03-02T11:04:24.960Z,12.10
2019-03-02T11:07:58.872Z,12.20
2019-03-02T11:11:14.892Z,12.40
2019-03-02T11:14:14.723Z,12.70
2019-03-02T11:17:45.637Z,12.50
2019-03-02T11:20:48.743Z,12.20
2019-03-02T11:23:47.064Z,12.10
2019-03-02T11:26:55.076Z,12.20
2019-03-02T11:29:51.412Z,12.30
2019-03-02T11:33:14.235Z,12.40
2019-03-02T11:36:16.035Z,12.70
2019-03-02T11:39:13.898Z,12.90
2019-03-02T11:42:16.576Z,12.70
2019-03-02T11:45:14.691Z,12.70
2019-03-02T11:48:17.256Z,13.60
2019-03-02T11:51:13.450Z,13.50
2019-03-02T11:53:58.765Z,13.50
2019-03-02T11:57:23.159Z,14.40
2019-03-02T12:00:17.853Z,15.00
2019-03-02T12:03:13.302Z,14.10
2019-03-02T12:06:14.527Z,14.00
2019-03-02T12:09:14.588Z,13.90
2019-03-02T12:11:49.561Z,13.80
2019-03-02T12:15:12.522Z,13.90
2019-03-02T12:18:12.859Z,13.50
2019-03-02T12:21:06.783Z,13.40
2019-03-02T12:24:19.065Z,13.30
2019-03-02T12:27:22.296Z,13.40
2019-03-02T12:30:11.755Z,13.30
2019-03-02T12:33:27.019Z,13.40
2019-03-02T12:36:08.721Z,13.30
2019-03-02T12:38:50.404Z,13.30
2019-03-02T12:42:09.029Z,13.20
2019-03-02T13:10:11.676Z,13.30
2019-03-02T13:12:42.849Z,13.60
2019-03-02T13:16:13.552Z,13.70
2019-03-02T13:19:11.298Z,14.00
2019-03-02T13:22:04.024Z,14.40
2019-03-02T13:25:06.303Z,14.40
2019-03-02T13:28:04.985Z,13.90
2019-03-02T13:31:07.510Z,13.80
2019-03-02T13:34:08.204Z,13.70
2019-03-02T13:40:12.208Z,13.80
2019-03-02T13:43:04.580Z,13.60
2019-03-02T13:46:12.100Z,13.50
2019-03-02T13:49:05.178Z,13.60
2019-03-02T13:52:35.270Z,13.80
2019-03-02T13:58:51.135Z,13.80
2019-03-02T14:01:31.866Z,13.40
2019-03-02T14:04:28.287Z,13.50
2019-03-02T14:07:27.226Z,13.60
2019-03-02T14:10:28.738Z,13.50
2019-03-02T14:13:30.583Z,13.50
2019-03-02T14:16:26.422Z,13.60
2019-03-02T14:19:25.358Z,13.70
2019-03-02T14:22:02.137Z,13.60
2019-03-02T14:25:27.096Z,13.70
2019-03-02T14:28:34.654Z,13.80
2019-03-02T14:31:24.756Z,13.70
2019-03-02T14:34:27.270Z,13.90
2019-03-02T14:37:29.133Z,13.70
2019-03-02T14:40:24.792Z,13.60
2019-03-02T14:43:21.841Z,13.50
2019-03-02T14:46:30.292Z,13.50
2019-03-02T14:49:43.121Z,13.40
2019-03-02T14:53:55.572Z,13.20
2019-03-02T14:55:34.881Z,13.30
2019-03-02T14:58:25.257Z,13.30
2019-03-02T15:01:24.831Z,13.20
2019-03-02T15:04:27.170Z,13.20
2019-03-02T15:07:24.733Z,13.10
2019-03-02T15:10:26.607Z,12.90
2019-03-02T15:13:16.442Z,12.80
2019-03-02T15:19:19.054Z,12.50
2019-03-02T15:22:25.330Z,12.30
2019-03-02T15:25:05.462Z,12.30
2019-03-02T15:28:37.351Z,12.30
2019-03-02T15:31:31.882Z,12.30
2019-03-02T15:37:21.134Z,12.10
2019-03-02T15:40:13.928Z,12.00
2019-03-02T15:43:04.998Z,12.00
2019-03-02T15:46:03.097Z,12.00
2019-03-02T15:49:36.282Z,11.90
2019-03-02T15:52:15.873Z,11.90
2019-03-02T15:55:31.678Z,11.80
2019-03-02T15:58:38.561Z,11.80
2019-03-02T16:01:39.369Z,11.70
2019-03-02T16:04:28.145Z,11.70
2019-03-02T16:07:34.986Z,11.70
2019-03-02T16:10:26.784Z,11.70
2019-03-02T16:13:29.966Z,11.60
2019-03-02T16:16:11.304Z,11.50
2019-03-02T16:19:29.225Z,11.50
2019-03-02T16:25:05.761Z,11.40
2019-03-02T16:28:24.906Z,11.40
2019-03-02T16:31:08.040Z,11.40
2019-03-02T16:34:47.417Z,11.40
2019-03-02T16:38:18.163Z,11.40
2019-03-02T16:41:08.857Z,11.40
2019-03-02T16:44:23.784Z,11.50
2019-03-02T16:47:28.968Z,11.50
2019-03-02T16:49:41.722Z,11.50
2019-03-02T16:53:58.586Z,11.40
2019-03-02T16:59:28.119Z,11.50
2019-03-02T17:02:26.022Z,11.40
2019-03-02T17:05:21.249Z,11.40
2019-03-02T17:08:23.400Z,11.30
2019-03-02T17:11:27.300Z,11.20
2019-03-02T17:14:20.571Z,11.20
2019-03-02T17:17:27.038Z,11.20
2019-03-02T17:20:22.297Z,11.20
2019-03-02T17:23:24.116Z,11.10
2019-03-02T17:26:16.255Z,11.10
2019-03-02T17:29:21.883Z,11.10
2019-03-02T17:32:01.851Z,11.00
2019-03-02T17:35:21.016Z,11.00
2019-03-02T17:38:27.261Z,11.10
2019-03-02T17:41:29.569Z,11.10
2019-03-02T17:45:02.571Z,11.00
2019-03-02T17:48:00.089Z,10.90
2019-03-02T17:51:05.960Z,10.90
2019-03-02T17:53:50.457Z,11.00
2019-03-02T17:56:55.762Z,10.90
2019-03-02T17:59:48.076Z,10.80
2019-03-02T18:02:45.846Z,10.90
2019-03-02T18:05:43.987Z,10.90
2019-03-02T18:08:36.431Z,10.80
2019-03-02T18:12:07.954Z,10.80
2019-03-02T18:14:43.922Z,10.90
2019-03-02T18:17:47.630Z,11.00
2019-03-02T18:20:37.372Z,10.90
2019-03-02T18:23:43.788Z,10.90
2019-03-02T18:29:31.768Z,10.90
2019-03-02T18:33:16.527Z,10.80
2019-03-02T18:34:45.675Z,10.80
2019-03-02T18:37:15.792Z,10.70
2019-03-02T18:39:58.160Z,10.70
2019-03-02T18:42:47.128Z,10.70
2019-03-02T18:47:46.143Z,10.70
2019-03-02T18:50:39.340Z,10.60
2019-03-02T18:53:39.761Z,10.60
2019-03-02T18:56:37.576Z,10.50
2019-03-02T18:59:00.275Z,10.60
2019-03-02T19:01:55.955Z,10.60
2019-03-02T19:04:39.584Z,10.60
2019-03-02T19:07:09.694Z,10.60
2019-03-02T19:10:04.068Z,10.70
2019-03-02T19:13:05.122Z,10.70
2019-03-02T19:15:56.041Z,10.70
2019-03-02T19:18:21.449Z,10.70
2019-03-02T19:21:09.395Z,10.80
2019-03-02T19:23:39.484Z,10.80
2019-03-02T19:26:30.379Z,10.70
2019-03-02T19:29:37.056Z,10.70
2019-03-02T19:32:27.462Z,10.80
2019-03-02T19:34:54.593Z,10.70
2019-03-02T19:37:34.164Z,10.70
2019-03-02T19:40:14.608Z,10.70
2019-03-02T19:43:06.049Z,10.70
2019-03-02T19:46:10.953Z,10.70
2019-03-02T19:49:16.818Z,10.70
2019-03-02T19:51:19.450Z,10.70
2019-03-02T19:53:49.847Z,10.70
2019-03-02T19:56:37.101Z,10.70
2019-03-02T20:02:35.849Z,10.70
2019-03-02T20:05:30.974Z,10.60
2019-03-02T20:08:01.281Z,10.60
2019-03-02T20:10:41.253Z,10.60
2019-03-02T20:13:14.132Z,10.70
2019-03-02T20:16:10.113Z,10.70
2019-03-02T20:19:04.561Z,10.70
2019-03-02T20:24:23.009Z,10.80
2019-03-02T20:26:55.429Z,10.80
2019-03-02T20:29:43.864Z,10.80
2019-03-02T20:32:25.692Z,10.80
2019-03-02T20:35:51.448Z,10.70
2019-03-02T20:38:03.878Z,10.80
2019-03-02T20:40:24.997Z,10.80
2019-03-02T20:43:14.109Z,10.80
2019-03-02T20:46:06.136Z,10.90
2019-03-02T20:48:29.898Z,11.00
2019-03-02T20:51:10.831Z,11.00
2019-03-02T20:53:42.993Z,11.00
2019-03-02T21:00:27.498Z,11.10
2019-03-02T21:01:57.902Z,11.00
2019-03-02T21:04:52.880Z,11.10
2019-03-02T21:07:23.749Z,11.10
2019-03-02T21:10:10.082Z,11.10
2019-03-02T21:15:12.724Z,11.00
2019-03-02T21:18:22.573Z,11.00
2019-03-02T21:20:41.448Z,10.90
2019-03-02T21:23:28.924Z,10.90
2019-03-02T21:26:00.731Z,10.80
2019-03-02T21:29:20.547Z,10.80
2019-03-02T21:31:12.141Z,10.80
2019-03-02T21:33:47.496Z,10.80
2019-03-02T21:36:42.334Z,10.80
2019-03-02T21:39:19.610Z,10.90
2019-03-02T21:42:01.389Z,10.80
2019-03-02T21:44:35.796Z,10.80
2019-03-02T21:47:16.213Z,10.80
2019-03-02T21:49:53.344Z,10.90
2019-03-02T21:52:28.078Z,11.00
2019-03-02T21:55:22.744Z,11.10
2019-03-02T21:58:02.814Z,11.10
2019-03-02T22:00:37.334Z,11.10
2019-03-02T22:03:07.442Z,11.10
2019-03-02T22:08:53.959Z,11.20
2019-03-02T22:11:55.342Z,11.20
2019-03-02T22:14:06.183Z,11.20
2019-03-02T22:16:36.740Z,11.10
2019-03-02T22:19:29.691Z,11.10
2019-03-02T22:22:04.983Z,11.20
2019-03-02T22:24:47.432Z,11.20
2019-03-02T22:27:32.647Z,11.30
2019-03-02T22:30:04.589Z,11.30
2019-03-02T22:32:43.410Z,11.30
2019-03-02T22:36:02.207Z,11.30
2019-03-02T22:38:04.331Z,11.20
2019-03-02T22:40:38.370Z,11.20
2019-03-02T22:43:30.728Z,11.20
2019-03-02T22:46:09.824Z,11.20
2019-03-02T22:48:45.410Z,11.30
2019-03-02T22:51:34.547Z,11.30
2019-03-02T22:54:05.105Z,11.30
2019-03-02T22:56:59.517Z,11.30
2019-03-02T23:00:00.342Z,11.30
2019-03-02T23:05:18.701Z,11.30
2019-03-02T23:08:01.201Z,11.20
2019-03-02T23:10:31.574Z,11.30
2019-03-02T23:13:21.084Z,11.30
2019-03-02T23:16:00.395Z,11.30
2019-03-02T23:18:30.669Z,11.30
2019-03-02T23:21:00.705Z,11.30
2019-03-02T23:23:44.697Z,11.30
2019-03-02T23:26:16.258Z,11.30
2019-03-02T23:28:55.456Z,11.20
2019-03-02T23:31:26.046Z,11.20
2019-03-02T23:34:36.967Z,11.20
2019-03-02T23:36:43.389Z,11.20
2019-03-02T23:39:28.020Z,11.20
2019-03-02T23:41:56.989Z,11.20
2019-03-02T23:44:54.865Z,11.20
2019-03-02T23:47:06.127Z,11.20
2019-03-02T23:50:55.975Z,11.20
2019-03-02T23:52:23.689Z,11.20
2019-03-02T23:55:20.794Z,11.20
2019-03-02T23:58:18.912Z,11.20
